sensor_id;sensor_type;location;lat;lon;timestamp;pressure;altitude;pressure_sealevel;temperature;humidity
7660;BME280;3872;47.902;8.162;2023-04-10T00:00:41;92313.25;;;3.14;100.00
7660;BME280;3872;47.902;8.162;2023-04-10T00:03:10;92312.97;;;3.49;100.00
7660;BME280;3872;47.902;8.162;2023-04-10T00:05:36;92312.50;;;3.36;100.00
7660;BME280;3872;47.902;8.162;2023-04-10T00:08:03;92316.41;;;3.33;100.00
7660;BME280;3872;47.902;8.162;2023-04-10T00:10:31;92311.47;;;3.53;100.00
7660;BME280;3872;47.902;8.162;2023-04-10T00:12:58;92312.44;;;3.31;100.00
7660;BME280;3872;47.902;8.162;2023-04-10T00:15:25;92316.34;;;3.11;100.00
7660;BME280;3872;47.902;8.162;2023-04-10T00:17:53;92316.97;;;3.02;100.00
7660;BME280;3872;47.902;8.162;2023-04-10T00:20:20;92318.53;;;3.03;100.00
7660;BME280;3872;47.902;8.162;2023-04-10T00:22:46;92320.34;;;2.69;100.00
7660;BME280;3872;47.902;8.162;2023-04-10T00:25:13;92313.56;;;2.68;100.00
7660;BME280;3872;47.902;8.162;2023-04-10T00:27:41;92308.75;;;2.93;100.00
7660;BME280;3872;47.902;8.162;2023-04-10T00:30:08;92316.16;;;2.85;100.00
7660;BME280;3872;47.902;8.162;2023-04-10T00:32:34;92314.78;;;2.49;100.00
7660;BME280;3872;47.902;8.162;2023-04-10T00:35:01;92314.75;;;2.94;100.00
7660;BME280;3872;47.902;8.162;2023-04-10T00:37:28;92316.88;;;2.97;100.00
7660;BME280;3872;47.902;8.162;2023-04-10T00:39:54;92313.41;;;3.08;100.00
7660;BME280;3872;47.902;8.162;2023-04-10T00:42:21;92312.00;;;3.17;100.00
7660;BME280;3872;47.902;8.162;2023-04-10T00:44:49;92322.34;;;2.50;100.00
7660;BME280;3872;47.902;8.162;2023-04-10T00:47:16;92320.91;;;2.88;100.00
7660;BME280;3872;47.902;8.162;2023-04-10T00:49:43;92309.78;;;3.09;100.00
7660;BME280;3872;47.902;8.162;2023-04-10T00:52:11;92313.34;;;2.69;100.00
7660;BME280;3872;47.902;8.162;2023-04-10T00:54:38;92299.38;;;2.59;100.00
7660;BME280;3872;47.902;8.162;2023-04-10T00:57:06;92303.56;;;2.60;100.00
7660;BME280;3872;47.902;8.162;2023-04-10T00:59:32;92299.53;;;2.52;100.00
7660;BME280;3872;47.902;8.162;2023-04-10T01:02:01;92303.53;;;2.15;100.00
7660;BME280;3872;47.902;8.162;2023-04-10T01:04:28;92300.03;;;1.81;100.00
7660;BME280;3872;47.902;8.162;2023-04-10T01:06:58;92300.06;;;2.38;100.00
7660;BME280;3872;47.902;8.162;2023-04-10T01:09:37;92301.53;;;3.12;100.00
7660;BME280;3872;47.902;8.162;2023-04-10T01:12:14;92299.09;;;2.89;100.00
7660;BME280;3872;47.902;8.162;2023-04-10T01:14:53;92290.41;;;3.00;100.00
7660;BME280;3872;47.902;8.162;2023-04-10T01:17:30;92298.06;;;2.73;100.00
7660;BME280;3872;47.902;8.162;2023-04-10T01:20:01;92296.84;;;2.47;100.00
7660;BME280;3872;47.902;8.162;2023-04-10T01:22:34;92292.78;;;2.68;100.00
7660;BME280;3872;47.902;8.162;2023-04-10T01:25:18;92284.75;;;2.86;100.00
7660;BME280;3872;47.902;8.162;2023-04-10T01:28:06;92293.94;;;2.60;100.00
7660;BME280;3872;47.902;8.162;2023-04-10T01:30:38;92296.25;;;2.73;100.00
7660;BME280;3872;47.902;8.162;2023-04-10T01:33:08;92300.81;;;2.66;100.00
7660;BME280;3872;47.902;8.162;2023-04-10T01:35:36;92291.41;;;2.49;100.00
7660;BME280;3872;47.902;8.162;2023-04-10T01:38:04;92295.88;;;2.36;100.00
7660;BME280;3872;47.902;8.162;2023-04-10T01:40:34;92294.63;;;1.82;100.00
7660;BME280;3872;47.902;8.162;2023-04-10T01:43:07;92295.88;;;2.08;100.00
7660;BME280;3872;47.902;8.162;2023-04-10T01:45:45;92300.63;;;2.40;100.00
7660;BME280;3872;47.902;8.162;2023-04-10T01:48:13;92294.56;;;2.51;100.00
7660;BME280;3872;47.902;8.162;2023-04-10T01:50:42;92295.16;;;2.69;100.00
7660;BME280;3872;47.902;8.162;2023-04-10T01:53:10;92294.78;;;2.32;100.00
7660;BME280;3872;47.902;8.162;2023-04-10T01:55:37;92285.72;;;2.07;100.00
7660;BME280;3872;47.902;8.162;2023-04-10T01:58:06;92285.38;;;2.15;100.00
7660;BME280;3872;47.902;8.162;2023-04-10T02:00:36;92287.78;;;2.05;100.00
7660;BME280;3872;47.902;8.162;2023-04-10T02:03:04;92286.91;;;2.44;100.00
7660;BME280;3872;47.902;8.162;2023-04-10T02:05:51;92283.16;;;2.52;100.00
7660;BME280;3872;47.902;8.162;2023-04-10T02:08:23;92282.53;;;2.61;100.00
7660;BME280;3872;47.902;8.162;2023-04-10T02:10:55;92280.44;;;2.30;100.00
7660;BME280;3872;47.902;8.162;2023-04-10T02:13:25;92287.41;;;2.41;100.00
7660;BME280;3872;47.902;8.162;2023-04-10T02:15:54;92284.94;;;2.06;100.00
7660;BME280;3872;47.902;8.162;2023-04-10T02:18:25;92284.25;;;2.39;100.00
7660;BME280;3872;47.902;8.162;2023-04-10T02:20:52;92282.38;;;2.51;100.00
7660;BME280;3872;47.902;8.162;2023-04-10T02:23:20;92277.56;;;1.98;100.00
7660;BME280;3872;47.902;8.162;2023-04-10T02:25:46;92289.59;;;1.64;100.00
7660;BME280;3872;47.902;8.162;2023-04-10T02:28:15;92298.34;;;2.15;100.00
7660;BME280;3872;47.902;8.162;2023-04-10T02:30:42;92296.75;;;2.42;100.00
7660;BME280;3872;47.902;8.162;2023-04-10T02:33:10;92295.97;;;2.13;100.00
7660;BME280;3872;47.902;8.162;2023-04-10T02:35:38;92302.00;;;2.30;100.00
7660;BME280;3872;47.902;8.162;2023-04-10T02:38:05;92300.00;;;2.21;100.00
7660;BME280;3872;47.902;8.162;2023-04-10T02:40:35;92297.69;;;2.08;100.00
7660;BME280;3872;47.902;8.162;2023-04-10T02:43:10;92296.16;;;2.23;100.00
7660;BME280;3872;47.902;8.162;2023-04-10T02:45:37;92292.69;;;2.18;100.00
7660;BME280;3872;47.902;8.162;2023-04-10T02:48:05;92288.38;;;2.23;100.00
7660;BME280;3872;47.902;8.162;2023-04-10T02:50:31;92287.28;;;1.79;100.00
7660;BME280;3872;47.902;8.162;2023-04-10T02:53:00;92282.34;;;1.26;100.00
7660;BME280;3872;47.902;8.162;2023-04-10T02:55:27;92278.03;;;1.32;100.00
7660;BME280;3872;47.902;8.162;2023-04-10T02:57:53;92270.72;;;1.80;100.00
7660;BME280;3872;47.902;8.162;2023-04-10T03:00:20;92274.00;;;0.89;100.00
7660;BME280;3872;47.902;8.162;2023-04-10T03:03:09;92274.00;;;1.76;100.00
7660;BME280;3872;47.902;8.162;2023-04-10T03:05:44;92274.03;;;1.92;100.00
7660;BME280;3872;47.902;8.162;2023-04-10T03:08:15;92269.91;;;2.20;100.00
7660;BME280;3872;47.902;8.162;2023-04-10T03:10:43;92268.47;;;2.12;100.00
7660;BME280;3872;47.902;8.162;2023-04-10T03:13:09;92259.91;;;2.00;100.00
7660;BME280;3872;47.902;8.162;2023-04-10T03:15:36;92257.88;;;1.34;100.00
7660;BME280;3872;47.902;8.162;2023-04-10T03:18:03;92265.13;;;0.97;100.00
7660;BME280;3872;47.902;8.162;2023-04-10T03:20:30;92264.38;;;1.36;100.00
7660;BME280;3872;47.902;8.162;2023-04-10T03:22:56;92260.34;;;2.09;100.00
7660;BME280;3872;47.902;8.162;2023-04-10T03:25:26;92258.88;;;2.13;100.00
7660;BME280;3872;47.902;8.162;2023-04-10T03:27:53;92256.50;;;2.28;100.00
7660;BME280;3872;47.902;8.162;2023-04-10T03:30:21;92251.84;;;1.85;100.00
7660;BME280;3872;47.902;8.162;2023-04-10T03:32:47;92248.19;;;2.26;100.00
7660;BME280;3872;47.902;8.162;2023-04-10T03:35:14;92257.00;;;2.42;100.00
7660;BME280;3872;47.902;8.162;2023-04-10T03:37:41;92256.91;;;2.36;100.00
7660;BME280;3872;47.902;8.162;2023-04-10T03:40:08;92243.66;;;2.05;100.00
7660;BME280;3872;47.902;8.162;2023-04-10T03:42:36;92238.78;;;2.08;100.00
7660;BME280;3872;47.902;8.162;2023-04-10T03:45:04;92243.97;;;1.80;100.00
7660;BME280;3872;47.902;8.162;2023-04-10T03:47:31;92236.47;;;1.67;100.00
7660;BME280;3872;47.902;8.162;2023-04-10T03:50:00;92250.22;;;1.15;100.00
7660;BME280;3872;47.902;8.162;2023-04-10T03:52:34;92237.84;;;1.57;100.00
7660;BME280;3872;47.902;8.162;2023-04-10T03:55:00;92237.47;;;2.06;100.00
7660;BME280;3872;47.902;8.162;2023-04-10T03:57:27;92235.88;;;2.21;100.00
7660;BME280;3872;47.902;8.162;2023-04-10T04:00:01;92226.38;;;1.82;100.00
7660;BME280;3872;47.902;8.162;2023-04-10T04:02:45;92225.66;;;1.58;100.00
7660;BME280;3872;47.902;8.162;2023-04-10T04:05:17;92229.13;;;1.24;100.00
7660;BME280;3872;47.902;8.162;2023-04-10T04:07:52;92231.25;;;1.38;100.00
7660;BME280;3872;47.902;8.162;2023-04-10T04:10:29;92240.69;;;1.56;100.00
7660;BME280;3872;47.902;8.162;2023-04-10T04:13:10;92240.81;;;2.06;100.00
7660;BME280;3872;47.902;8.162;2023-04-10T04:15:49;92244.47;;;1.77;100.00
7660;BME280;3872;47.902;8.162;2023-04-10T04:18:32;92242.41;;;1.79;100.00
7660;BME280;3872;47.902;8.162;2023-04-10T04:21:37;92251.09;;;1.33;100.00
7660;BME280;3872;47.902;8.162;2023-04-10T04:24:23;92259.16;;;0.96;100.00
7660;BME280;3872;47.902;8.162;2023-04-10T04:27:03;92258.28;;;1.42;100.00
7660;BME280;3872;47.902;8.162;2023-04-10T04:29:47;92247.19;;;1.99;100.00
7660;BME280;3872;47.902;8.162;2023-04-10T04:32:35;92249.38;;;2.07;100.00
7660;BME280;3872;47.902;8.162;2023-04-10T04:35:14;92247.50;;;1.74;100.00
7660;BME280;3872;47.902;8.162;2023-04-10T04:38:09;92257.78;;;0.94;100.00
7660;BME280;3872;47.902;8.162;2023-04-10T04:41:02;92261.63;;;0.68;100.00
7660;BME280;3872;47.902;8.162;2023-04-10T04:43:48;92249.50;;;1.83;100.00
7660;BME280;3872;47.902;8.162;2023-04-10T04:46:37;92256.00;;;1.57;100.00
7660;BME280;3872;47.902;8.162;2023-04-10T04:49:25;92251.69;;;1.35;100.00
7660;BME280;3872;47.902;8.162;2023-04-10T04:52:12;92247.69;;;1.55;100.00
7660;BME280;3872;47.902;8.162;2023-04-10T04:54:42;92252.03;;;1.95;100.00
7660;BME280;3872;47.902;8.162;2023-04-10T04:57:27;92253.34;;;2.09;100.00
7660;BME280;3872;47.902;8.162;2023-04-10T05:00:26;92249.13;;;1.63;100.00
7660;BME280;3872;47.902;8.162;2023-04-10T05:03:21;92250.78;;;1.69;100.00
7660;BME280;3872;47.902;8.162;2023-04-10T05:06:04;92252.59;;;1.97;100.00
7660;BME280;3872;47.902;8.162;2023-04-10T05:08:49;92252.91;;;2.01;100.00
7660;BME280;3872;47.902;8.162;2023-04-10T05:11:27;92245.97;;;1.89;100.00
7660;BME280;3872;47.902;8.162;2023-04-10T05:14:12;92247.00;;;1.88;100.00
7660;BME280;3872;47.902;8.162;2023-04-10T05:17:08;92261.47;;;1.84;100.00
7660;BME280;3872;47.902;8.162;2023-04-10T05:19:44;92248.34;;;1.91;100.00
7660;BME280;3872;47.902;8.162;2023-04-10T05:22:24;92250.03;;;1.85;100.00
7660;BME280;3872;47.902;8.162;2023-04-10T05:25:13;92253.44;;;1.86;100.00
7660;BME280;3872;47.902;8.162;2023-04-10T05:27:58;92254.31;;;1.51;100.00
7660;BME280;3872;47.902;8.162;2023-04-10T05:30:36;92259.03;;;1.66;100.00
7660;BME280;3872;47.902;8.162;2023-04-10T05:33:09;92259.41;;;1.86;100.00
7660;BME280;3872;47.902;8.162;2023-04-10T05:35:54;92255.38;;;2.52;100.00
7660;BME280;3872;47.902;8.162;2023-04-10T05:38:27;92257.91;;;2.47;100.00
7660;BME280;3872;47.902;8.162;2023-04-10T05:41:03;92263.63;;;2.04;100.00
7660;BME280;3872;47.902;8.162;2023-04-10T05:43:39;92264.81;;;2.75;100.00
7660;BME280;3872;47.902;8.162;2023-04-10T05:46:22;92270.88;;;2.97;100.00
7660;BME280;3872;47.902;8.162;2023-04-10T05:49:04;92275.19;;;2.42;100.00
7660;BME280;3872;47.902;8.162;2023-04-10T05:51:52;92277.63;;;2.31;100.00
7660;BME280;3872;47.902;8.162;2023-04-10T05:54:45;92269.97;;;2.70;100.00
7660;BME280;3872;47.902;8.162;2023-04-10T05:57:31;92262.75;;;2.94;100.00
7660;BME280;3872;47.902;8.162;2023-04-10T06:00:04;92267.41;;;2.58;100.00
7660;BME280;3872;47.902;8.162;2023-04-10T06:03:00;92270.72;;;2.70;100.00
7660;BME280;3872;47.902;8.162;2023-04-10T06:05:27;92271.22;;;2.84;100.00
7660;BME280;3872;47.902;8.162;2023-04-10T06:07:58;92264.09;;;2.80;100.00
7660;BME280;3872;47.902;8.162;2023-04-10T06:10:28;92263.31;;;3.12;100.00
7660;BME280;3872;47.902;8.162;2023-04-10T06:12:55;92264.06;;;3.13;100.00
7660;BME280;3872;47.902;8.162;2023-04-10T06:15:22;92259.81;;;3.24;100.00
7660;BME280;3872;47.902;8.162;2023-04-10T06:17:49;92253.34;;;3.26;100.00
7660;BME280;3872;47.902;8.162;2023-04-10T06:20:16;92262.06;;;2.98;100.00
7660;BME280;3872;47.902;8.162;2023-04-10T06:22:42;92257.72;;;3.42;100.00
7660;BME280;3872;47.902;8.162;2023-04-10T06:25:09;92251.09;;;3.35;100.00
7660;BME280;3872;47.902;8.162;2023-04-10T06:27:37;92252.03;;;3.45;100.00
7660;BME280;3872;47.902;8.162;2023-04-10T06:30:08;92257.81;;;3.47;100.00
7660;BME280;3872;47.902;8.162;2023-04-10T06:32:35;92266.03;;;3.61;100.00
7660;BME280;3872;47.902;8.162;2023-04-10T06:35:01;92260.47;;;3.96;100.00
7660;BME280;3872;47.902;8.162;2023-04-10T06:37:28;92256.13;;;4.33;100.00
7660;BME280;3872;47.902;8.162;2023-04-10T06:40:02;92252.03;;;4.69;100.00
7660;BME280;3872;47.902;8.162;2023-04-10T06:42:29;92247.75;;;4.90;100.00
7660;BME280;3872;47.902;8.162;2023-04-10T06:45:02;92248.75;;;5.21;100.00
7660;BME280;3872;47.902;8.162;2023-04-10T06:47:29;92248.75;;;5.21;100.00
7660;BME280;3872;47.902;8.162;2023-04-10T06:49:56;92249.16;;;5.40;100.00
7660;BME280;3872;47.902;8.162;2023-04-10T06:52:22;92250.22;;;5.96;100.00
7660;BME280;3872;47.902;8.162;2023-04-10T06:54:49;92244.25;;;6.21;100.00
7660;BME280;3872;47.902;8.162;2023-04-10T06:57:16;92249.19;;;6.02;100.00
7660;BME280;3872;47.902;8.162;2023-04-10T06:59:43;92247.91;;;6.20;100.00
7660;BME280;3872;47.902;8.162;2023-04-10T07:02:11;92242.69;;;6.10;100.00
7660;BME280;3872;47.902;8.162;2023-04-10T07:04:38;92237.03;;;6.53;96.80
7660;BME280;3872;47.902;8.162;2023-04-10T07:07:04;92244.34;;;6.51;100.00
7660;BME280;3872;47.902;8.162;2023-04-10T07:09:34;92242.25;;;6.79;100.00
7660;BME280;3872;47.902;8.162;2023-04-10T07:12:00;92233.88;;;6.92;98.86
7660;BME280;3872;47.902;8.162;2023-04-10T07:14:27;92240.44;;;6.94;100.00
7660;BME280;3872;47.902;8.162;2023-04-10T07:16:53;92234.31;;;7.65;92.92
7660;BME280;3872;47.902;8.162;2023-04-10T07:19:21;92226.34;;;7.90;94.08
7660;BME280;3872;47.902;8.162;2023-04-10T07:21:47;92225.63;;;8.39;87.80
7660;BME280;3872;47.902;8.162;2023-04-10T07:24:14;92221.44;;;7.68;100.00
7660;BME280;3872;47.902;8.162;2023-04-10T07:26:41;92224.63;;;7.60;100.00
7660;BME280;3872;47.902;8.162;2023-04-10T07:29:08;92230.28;;;7.93;96.04
7660;BME280;3872;47.902;8.162;2023-04-10T07:31:35;92220.41;;;8.34;89.76
7660;BME280;3872;47.902;8.162;2023-04-10T07:34:01;92226.00;;;8.66;89.72
7660;BME280;3872;47.902;8.162;2023-04-10T07:36:29;92221.06;;;8.93;88.47
7660;BME280;3872;47.902;8.162;2023-04-10T07:38:56;92227.00;;;9.33;82.63
7660;BME280;3872;47.902;8.162;2023-04-10T07:41:22;92225.63;;;8.39;87.13
7660;BME280;3872;47.902;8.162;2023-04-10T07:43:49;92220.00;;;9.52;82.92
7660;BME280;3872;47.902;8.162;2023-04-10T07:46:16;92221.78;;;8.99;85.24
7660;BME280;3872;47.902;8.162;2023-04-10T07:48:43;92211.28;;;9.80;80.67
7660;BME280;3872;47.902;8.162;2023-04-10T07:51:11;92204.16;;;10.47;75.83
7660;BME280;3872;47.902;8.162;2023-04-10T07:53:39;92215.53;;;9.53;85.10
7660;BME280;3872;47.902;8.162;2023-04-10T07:56:07;92214.34;;;10.54;77.38
7660;BME280;3872;47.902;8.162;2023-04-10T07:58:35;92212.63;;;10.63;79.56
7660;BME280;3872;47.902;8.162;2023-04-10T08:01:01;92211.69;;;10.54;85.19
7660;BME280;3872;47.902;8.162;2023-04-10T08:03:28;92215.03;;;10.41;87.05
7660;BME280;3872;47.902;8.162;2023-04-10T08:05:54;92202.53;;;11.81;76.66
7660;BME280;3872;47.902;8.162;2023-04-10T08:08:21;92207.78;;;12.22;69.21
7660;BME280;3872;47.902;8.162;2023-04-10T08:10:48;92208.38;;;12.33;68.22
7660;BME280;3872;47.902;8.162;2023-04-10T08:13:15;92210.09;;;12.51;69.12
7660;BME280;3872;47.902;8.162;2023-04-10T08:15:42;92220.91;;;12.77;66.46
7660;BME280;3872;47.902;8.162;2023-04-10T08:18:08;92217.38;;;13.04;63.04
7660;BME280;3872;47.902;8.162;2023-04-10T08:20:35;92214.56;;;13.22;67.18
7660;BME280;3872;47.902;8.162;2023-04-10T08:23:01;92213.53;;;13.54;61.51
7660;BME280;3872;47.902;8.162;2023-04-10T08:25:28;92212.34;;;13.38;63.87
7660;BME280;3872;47.902;8.162;2023-04-10T08:27:56;92207.09;;;13.69;59.84
7660;BME280;3872;47.902;8.162;2023-04-10T08:30:24;92202.91;;;14.81;55.10
7660;BME280;3872;47.902;8.162;2023-04-10T08:32:51;92203.03;;;14.59;60.92
7660;BME280;3872;47.902;8.162;2023-04-10T08:35:18;92197.91;;;14.97;55.34
7660;BME280;3872;47.902;8.162;2023-04-10T08:37:44;92198.38;;;14.91;57.17
7660;BME280;3872;47.902;8.162;2023-04-10T08:40:11;92195.59;;;14.22;51.13
7660;BME280;3872;47.902;8.162;2023-04-10T08:42:38;92193.41;;;14.98;52.07
7660;BME280;3872;47.902;8.162;2023-04-10T08:45:07;92187.75;;;14.99;54.04
7660;BME280;3872;47.902;8.162;2023-04-10T08:47:35;92189.63;;;15.33;53.81
7660;BME280;3872;47.902;8.162;2023-04-10T08:50:05;92187.34;;;14.23;51.46
7660;BME280;3872;47.902;8.162;2023-04-10T08:52:33;92192.91;;;15.21;48.49
7660;BME280;3872;47.902;8.162;2023-04-10T08:55:04;92187.28;;;15.95;47.39
7660;BME280;3872;47.902;8.162;2023-04-10T08:57:32;92188.53;;;16.27;48.33
7660;BME280;3872;47.902;8.162;2023-04-10T08:59:59;92194.13;;;16.05;47.79
7660;BME280;3872;47.902;8.162;2023-04-10T09:02:27;92196.97;;;14.76;49.59
7660;BME280;3872;47.902;8.162;2023-04-10T09:04:54;92201.97;;;15.03;45.68
7660;BME280;3872;47.902;8.162;2023-04-10T09:07:25;92194.13;;;15.41;48.04
7660;BME280;3872;47.902;8.162;2023-04-10T09:09:52;92184.59;;;15.49;46.21
7660;BME280;3872;47.902;8.162;2023-04-10T09:12:18;92195.84;;;16.01;46.22
7660;BME280;3872;47.902;8.162;2023-04-10T09:14:45;92197.28;;;15.98;45.60
7660;BME280;3872;47.902;8.162;2023-04-10T09:17:16;92190.88;;;15.01;46.67
7660;BME280;3872;47.902;8.162;2023-04-10T09:19:45;92186.31;;;15.62;46.92
7660;BME280;3872;47.902;8.162;2023-04-10T09:22:12;92187.06;;;16.47;45.10
7660;BME280;3872;47.902;8.162;2023-04-10T09:24:41;92186.34;;;16.59;43.57
7660;BME280;3872;47.902;8.162;2023-04-10T09:27:08;92180.28;;;16.20;45.78
7660;BME280;3872;47.902;8.162;2023-04-10T09:29:42;92176.47;;;16.68;43.08
7660;BME280;3872;47.902;8.162;2023-04-10T09:32:10;92181.28;;;16.45;44.02
7660;BME280;3872;47.902;8.162;2023-04-10T09:34:53;92182.00;;;17.04;42.82
7660;BME280;3872;47.902;8.162;2023-04-10T09:37:21;92170.28;;;17.38;40.61
7660;BME280;3872;47.902;8.162;2023-04-10T09:39:47;92171.31;;;18.03;39.62
7660;BME280;3872;47.902;8.162;2023-04-10T09:42:14;92162.69;;;18.30;38.01
7660;BME280;3872;47.902;8.162;2023-04-10T09:44:41;92151.69;;;18.32;38.18
7660;BME280;3872;47.902;8.162;2023-04-10T09:47:15;92161.34;;;18.73;37.97
7660;BME280;3872;47.902;8.162;2023-04-10T09:49:44;92159.66;;;17.95;37.70
7660;BME280;3872;47.902;8.162;2023-04-10T09:52:18;92157.56;;;17.89;38.75
7660;BME280;3872;47.902;8.162;2023-04-10T09:54:49;92152.22;;;17.89;42.00
7660;BME280;3872;47.902;8.162;2023-04-10T09:57:17;92149.03;;;18.56;36.54
7660;BME280;3872;47.902;8.162;2023-04-10T09:59:47;92145.94;;;17.60;37.11
7660;BME280;3872;47.902;8.162;2023-04-10T10:02:16;92141.91;;;17.42;39.76
7660;BME280;3872;47.902;8.162;2023-04-10T10:04:43;92145.81;;;17.12;41.84
7660;BME280;3872;47.902;8.162;2023-04-10T10:07:11;92144.09;;;17.61;37.97
7660;BME280;3872;47.902;8.162;2023-04-10T10:09:39;92144.66;;;17.13;40.94
7660;BME280;3872;47.902;8.162;2023-04-10T10:12:08;92135.28;;;17.15;41.02
7660;BME280;3872;47.902;8.162;2023-04-10T10:14:39;92143.16;;;17.12;41.29
7660;BME280;3872;47.902;8.162;2023-04-10T10:17:10;92136.16;;;17.40;39.71
7660;BME280;3872;47.902;8.162;2023-04-10T10:19:41;92134.06;;;17.58;39.38
7660;BME280;3872;47.902;8.162;2023-04-10T10:22:08;92128.03;;;17.82;39.00
7660;BME280;3872;47.902;8.162;2023-04-10T10:24:38;92127.53;;;18.89;35.91
7660;BME280;3872;47.902;8.162;2023-04-10T10:27:08;92120.78;;;18.55;37.60
7660;BME280;3872;47.902;8.162;2023-04-10T10:29:36;92120.91;;;19.11;35.74
7660;BME280;3872;47.902;8.162;2023-04-10T10:32:05;92107.59;;;18.99;35.56
7660;BME280;3872;47.902;8.162;2023-04-10T10:34:31;92115.75;;;19.18;35.24
7660;BME280;3872;47.902;8.162;2023-04-10T10:36:58;92102.34;;;19.74;34.15
7660;BME280;3872;47.902;8.162;2023-04-10T10:39:31;92112.13;;;19.54;34.43
7660;BME280;3872;47.902;8.162;2023-04-10T10:42:07;92112.69;;;20.38;33.72
7660;BME280;3872;47.902;8.162;2023-04-10T10:44:41;92111.84;;;20.03;31.70
7660;BME280;3872;47.902;8.162;2023-04-10T10:47:15;92114.19;;;20.55;31.45
7660;BME280;3872;47.902;8.162;2023-04-10T10:49:51;92107.50;;;20.80;32.00
7660;BME280;3872;47.902;8.162;2023-04-10T10:52:35;92106.38;;;21.58;31.65
7660;BME280;3872;47.902;8.162;2023-04-10T10:55:26;92108.44;;;20.53;32.18
7660;BME280;3872;47.902;8.162;2023-04-10T10:57:58;92104.09;;;20.83;33.05
7660;BME280;3872;47.902;8.162;2023-04-10T11:00:26;92099.59;;;20.17;34.99
7660;BME280;3872;47.902;8.162;2023-04-10T11:03:27;92110.88;;;19.79;32.53
7660;BME280;3872;47.902;8.162;2023-04-10T11:05:56;92110.97;;;21.19;32.92
7660;BME280;3872;47.902;8.162;2023-04-10T11:08:53;92096.09;;;22.06;27.23
7660;BME280;3872;47.902;8.162;2023-04-10T11:11:20;92097.91;;;20.79;32.66
7660;BME280;3872;47.902;8.162;2023-04-10T11:14:13;92094.72;;;22.15;30.90
7660;BME280;3872;47.902;8.162;2023-04-10T11:16:43;92091.94;;;21.05;31.18
7660;BME280;3872;47.902;8.162;2023-04-10T11:19:11;92080.28;;;19.92;33.85
7660;BME280;3872;47.902;8.162;2023-04-10T11:21:58;92079.16;;;22.24;29.72
7660;BME280;3872;47.902;8.162;2023-04-10T11:24:26;92074.09;;;22.46;30.00
7660;BME280;3872;47.902;8.162;2023-04-10T11:26:53;92080.75;;;21.38;31.02
7660;BME280;3872;47.902;8.162;2023-04-10T11:29:33;92079.34;;;21.67;28.35
7660;BME280;3872;47.902;8.162;2023-04-10T11:32:02;92084.47;;;21.14;29.54
7660;BME280;3872;47.902;8.162;2023-04-10T11:34:30;92074.91;;;21.32;30.13
7660;BME280;3872;47.902;8.162;2023-04-10T11:36:58;92068.72;;;22.46;29.37
7660;BME280;3872;47.902;8.162;2023-04-10T11:39:25;92068.72;;;22.72;27.53
7660;BME280;3872;47.902;8.162;2023-04-10T11:41:53;92076.94;;;21.62;29.31
7660;BME280;3872;47.902;8.162;2023-04-10T11:44:26;92064.72;;;22.85;30.03
7660;BME280;3872;47.902;8.162;2023-04-10T11:46:55;92069.72;;;22.08;31.00
7660;BME280;3872;47.902;8.162;2023-04-10T11:49:24;92052.09;;;22.07;30.18
7660;BME280;3872;47.902;8.162;2023-04-10T11:51:52;92034.06;;;23.20;29.91
7660;BME280;3872;47.902;8.162;2023-04-10T11:54:20;92046.94;;;23.81;28.95
7660;BME280;3872;47.902;8.162;2023-04-10T11:56:59;92039.75;;;23.48;27.09
7660;BME280;3872;47.902;8.162;2023-04-10T11:59:26;92052.75;;;23.13;27.93
7660;BME280;3872;47.902;8.162;2023-04-10T12:02:04;92053.78;;;23.01;28.12
7660;BME280;3872;47.902;8.162;2023-04-10T12:04:32;92050.25;;;23.30;29.53
7660;BME280;3872;47.902;8.162;2023-04-10T12:06:58;92052.03;;;23.90;29.11
7660;BME280;3872;47.902;8.162;2023-04-10T12:09:25;92047.19;;;24.09;27.68
7660;BME280;3872;47.902;8.162;2023-04-10T12:11:53;92048.59;;;23.15;29.85
7660;BME280;3872;47.902;8.162;2023-04-10T12:14:22;92052.78;;;23.87;28.13
7660;BME280;3872;47.902;8.162;2023-04-10T12:16:49;92054.22;;;23.77;28.72
7660;BME280;3872;47.902;8.162;2023-04-10T12:19:18;92042.03;;;23.87;28.12
7660;BME280;3872;47.902;8.162;2023-04-10T12:21:45;92033.94;;;23.46;28.98
7660;BME280;3872;47.902;8.162;2023-04-10T12:24:12;92042.19;;;23.64;29.80
7660;BME280;3872;47.902;8.162;2023-04-10T12:26:59;92044.16;;;22.14;29.59
7660;BME280;3872;47.902;8.162;2023-04-10T12:29:26;92032.06;;;22.80;26.69
7660;BME280;3872;47.902;8.162;2023-04-10T12:31:53;92031.78;;;22.06;28.51
7660;BME280;3872;47.902;8.162;2023-04-10T12:34:21;92031.34;;;22.56;27.77
7660;BME280;3872;47.902;8.162;2023-04-10T12:36:51;92032.53;;;20.07;29.75
7660;BME280;3872;47.902;8.162;2023-04-10T12:39:21;92032.03;;;20.71;29.23
7660;BME280;3872;47.902;8.162;2023-04-10T12:41:48;92014.56;;;22.07;27.49
7660;BME280;3872;47.902;8.162;2023-04-10T12:44:14;92014.00;;;22.20;27.59
7660;BME280;3872;47.902;8.162;2023-04-10T12:46:42;92025.75;;;20.63;29.87
7660;BME280;3872;47.902;8.162;2023-04-10T12:49:12;92035.09;;;20.54;31.63
7660;BME280;3872;47.902;8.162;2023-04-10T12:51:47;92024.94;;;21.85;27.77
7660;BME280;3872;47.902;8.162;2023-04-10T12:54:30;92020.50;;;22.19;27.29
7660;BME280;3872;47.902;8.162;2023-04-10T12:56:58;92012.53;;;23.53;27.88
7660;BME280;3872;47.902;8.162;2023-04-10T12:59:25;92020.47;;;21.93;34.65
7660;BME280;3872;47.902;8.162;2023-04-10T13:01:52;92019.56;;;22.64;31.64
7660;BME280;3872;47.902;8.162;2023-04-10T13:04:18;92018.56;;;21.06;36.30
7660;BME280;3872;47.902;8.162;2023-04-10T13:06:47;92019.97;;;21.38;36.91
7660;BME280;3872;47.902;8.162;2023-04-10T13:09:17;92012.56;;;21.77;35.55
7660;BME280;3872;47.902;8.162;2023-04-10T13:11:44;92018.81;;;21.62;35.33
7660;BME280;3872;47.902;8.162;2023-04-10T13:14:10;92018.41;;;22.92;32.82
7660;BME280;3872;47.902;8.162;2023-04-10T13:16:37;92009.94;;;22.30;32.61
7660;BME280;3872;47.902;8.162;2023-04-10T13:19:03;92007.75;;;22.69;32.50
7660;BME280;3872;47.902;8.162;2023-04-10T13:21:30;92009.22;;;24.14;28.88
7660;BME280;3872;47.902;8.162;2023-04-10T13:23:58;92004.44;;;24.48;26.99
7660;BME280;3872;47.902;8.162;2023-04-10T13:26:24;92003.44;;;24.78;26.48
7660;BME280;3872;47.902;8.162;2023-04-10T13:28:51;91999.19;;;24.11;26.66
7660;BME280;3872;47.902;8.162;2023-04-10T13:31:17;91996.66;;;24.29;25.06
7660;BME280;3872;47.902;8.162;2023-04-10T13:33:44;91998.59;;;24.29;23.57
7660;BME280;3872;47.902;8.162;2023-04-10T13:36:12;92001.00;;;23.12;24.67
7660;BME280;3872;47.902;8.162;2023-04-10T13:38:39;92013.81;;;21.61;27.38
7660;BME280;3872;47.902;8.162;2023-04-10T13:41:07;92014.06;;;20.33;22.40
7660;BME280;3872;47.902;8.162;2023-04-10T13:43:35;92007.91;;;19.19;23.05